sensor_id;sensor_type;location;lat;lon;timestamp;P1;durP1;ratioP1;P2;durP2;ratioP2
5345;SDS011;2695;49.444;11.054;2023-05-23T00:01:30;10.47;;;8.20;;
5345;SDS011;2695;49.444;11.054;2023-05-23T00:03:58;19.80;;;7.93;;
5345;SDS011;2695;49.444;11.054;2023-05-23T00:06:27;15.17;;;8.37;;
5345;SDS011;2695;49.444;11.054;2023-05-23T00:08:55;14.37;;;8.40;;
5345;SDS011;2695;49.444;11.054;2023-05-23T00:11:24;13.57;;;8.47;;
5345;SDS011;2695;49.444;11.054;2023-05-23T00:13:55;12.00;;;8.87;;
5345;SDS011;2695;49.444;11.054;2023-05-23T00:16:26;11.97;;;8.30;;
5345;SDS011;2695;49.444;11.054;2023-05-23T00:18:54;10.83;;;7.83;;
5345;SDS011;2695;49.444;11.054;2023-05-23T00:21:24;11.00;;;8.33;;
5345;SDS011;2695;49.444;11.054;2023-05-23T00:23:52;11.13;;;8.27;;
5345;SDS011;2695;49.444;11.054;2023-05-23T00:26:20;8.53;;;7.63;;
5345;SDS011;2695;49.444;11.054;2023-05-23T00:28:49;10.03;;;7.87;;
5345;SDS011;2695;49.444;11.054;2023-05-23T00:31:18;10.70;;;8.20;;
5345;SDS011;2695;49.444;11.054;2023-05-23T00:33:46;11.70;;;8.20;;
5345;SDS011;2695;49.444;11.054;2023-05-23T00:36:14;10.27;;;7.93;;
5345;SDS011;2695;49.444;11.054;2023-05-23T00:38:43;9.80;;;7.50;;
5345;SDS011;2695;49.444;11.054;2023-05-23T00:41:12;9.07;;;7.30;;
5345;SDS011;2695;49.444;11.054;2023-05-23T00:43:40;9.20;;;7.50;;
5345;SDS011;2695;49.444;11.054;2023-05-23T00:46:08;8.77;;;7.57;;
5345;SDS011;2695;49.444;11.054;2023-05-23T00:48:39;13.10;;;7.90;;
5345;SDS011;2695;49.444;11.054;2023-05-23T00:51:06;9.30;;;6.93;;
5345;SDS011;2695;49.444;11.054;2023-05-23T00:53:34;10.50;;;7.30;;
5345;SDS011;2695;49.444;11.054;2023-05-23T00:56:03;10.53;;;7.57;;
5345;SDS011;2695;49.444;11.054;2023-05-23T00:58:31;12.30;;;8.10;;
5345;SDS011;2695;49.444;11.054;2023-05-23T01:00:59;9.93;;;7.83;;
5345;SDS011;2695;49.444;11.054;2023-05-23T01:03:28;15.63;;;8.00;;
5345;SDS011;2695;49.444;11.054;2023-05-23T01:05:57;10.30;;;7.60;;
5345;SDS011;2695;49.444;11.054;2023-05-23T01:08:25;14.03;;;8.23;;
5345;SDS011;2695;49.444;11.054;2023-05-23T01:10:55;11.60;;;7.70;;
5345;SDS011;2695;49.444;11.054;2023-05-23T01:13:30;10.90;;;7.83;;
5345;SDS011;2695;49.444;11.054;2023-05-23T01:16:06;10.13;;;7.57;;
5345;SDS011;2695;49.444;11.054;2023-05-23T01:18:42;10.43;;;7.87;;
5345;SDS011;2695;49.444;11.054;2023-05-23T01:21:17;12.60;;;7.97;;
5345;SDS011;2695;49.444;11.054;2023-05-23T01:26:51;12.07;;;8.60;;
5345;SDS011;2695;49.444;11.054;2023-05-23T01:29:33;12.53;;;8.17;;
5345;SDS011;2695;49.444;11.054;2023-05-23T01:32:06;10.17;;;7.80;;
5345;SDS011;2695;49.444;11.054;2023-05-23T01:34:37;9.10;;;7.93;;
5345;SDS011;2695;49.444;11.054;2023-05-23T01:37:08;9.83;;;7.77;;
5345;SDS011;2695;49.444;11.054;2023-05-23T01:39:38;12.17;;;8.57;;
5345;SDS011;2695;49.444;11.054;2023-05-23T01:42:07;10.43;;;8.53;;
5345;SDS011;2695;49.444;11.054;2023-05-23T01:44:37;11.47;;;7.97;;
5345;SDS011;2695;49.444;11.054;2023-05-23T01:47:06;11.13;;;8.93;;
5345;SDS011;2695;49.444;11.054;2023-05-23T01:49:36;10.50;;;8.27;;
5345;SDS011;2695;49.444;11.054;2023-05-23T01:52:04;10.60;;;8.50;;
5345;SDS011;2695;49.444;11.054;2023-05-23T01:54:35;10.83;;;8.00;;
5345;SDS011;2695;49.444;11.054;2023-05-23T01:57:04;11.27;;;8.70;;
5345;SDS011;2695;49.444;11.054;2023-05-23T01:59:32;13.93;;;7.90;;
5345;SDS011;2695;49.444;11.054;2023-05-23T02:02:02;11.00;;;8.00;;
5345;SDS011;2695;49.444;11.054;2023-05-23T02:04:31;8.80;;;7.90;;
5345;SDS011;2695;49.444;11.054;2023-05-23T02:06:59;10.77;;;8.07;;
5345;SDS011;2695;49.444;11.054;2023-05-23T02:09:27;9.83;;;7.23;;
5345;SDS011;2695;49.444;11.054;2023-05-23T02:11:55;9.43;;;8.07;;
5345;SDS011;2695;49.444;11.054;2023-05-23T02:14:23;9.47;;;8.20;;
5345;SDS011;2695;49.444;11.054;2023-05-23T02:16:51;10.80;;;7.77;;
5345;SDS011;2695;49.444;11.054;2023-05-23T02:19:21;10.60;;;7.67;;
5345;SDS011;2695;49.444;11.054;2023-05-23T02:21:49;13.43;;;9.10;;
5345;SDS011;2695;49.444;11.054;2023-05-23T02:24:17;12.90;;;7.97;;
5345;SDS011;2695;49.444;11.054;2023-05-23T02:26:46;15.67;;;8.50;;
5345;SDS011;2695;49.444;11.054;2023-05-23T02:29:14;10.60;;;7.70;;
5345;SDS011;2695;49.444;11.054;2023-05-23T02:31:42;12.30;;;8.57;;
5345;SDS011;2695;49.444;11.054;2023-05-23T02:34:10;12.90;;;9.03;;
5345;SDS011;2695;49.444;11.054;2023-05-23T02:36:39;12.23;;;8.00;;
5345;SDS011;2695;49.444;11.054;2023-05-23T02:39:07;13.63;;;7.90;;
5345;SDS011;2695;49.444;11.054;2023-05-23T02:41:35;10.43;;;8.57;;
5345;SDS011;2695;49.444;11.054;2023-05-23T02:44:04;14.83;;;8.33;;
5345;SDS011;2695;49.444;11.054;2023-05-23T02:46:32;10.80;;;8.70;;
5345;SDS011;2695;49.444;11.054;2023-05-23T02:49:00;11.33;;;9.03;;
5345;SDS011;2695;49.444;11.054;2023-05-23T02:51:28;10.17;;;8.83;;
5345;SDS011;2695;49.444;11.054;2023-05-23T02:53:58;11.37;;;8.67;;
5345;SDS011;2695;49.444;11.054;2023-05-23T02:56:26;16.37;;;9.57;;
5345;SDS011;2695;49.444;11.054;2023-05-23T02:58:54;12.90;;;9.20;;
5345;SDS011;2695;49.444;11.054;2023-05-23T03:01:22;12.27;;;9.03;;
5345;SDS011;2695;49.444;11.054;2023-05-23T03:03:50;10.60;;;8.87;;
5345;SDS011;2695;49.444;11.054;2023-05-23T03:06:18;10.70;;;9.43;;
5345;SDS011;2695;49.444;11.054;2023-05-23T03:08:47;10.50;;;8.07;;
5345;SDS011;2695;49.444;11.054;2023-05-23T03:11:17;11.30;;;8.73;;
5345;SDS011;2695;49.444;11.054;2023-05-23T03:13:45;10.43;;;7.70;;
5345;SDS011;2695;49.444;11.054;2023-05-23T03:16:13;10.77;;;8.30;;
5345;SDS011;2695;49.444;11.054;2023-05-23T03:18:41;11.53;;;8.90;;
5345;SDS011;2695;49.444;11.054;2023-05-23T03:21:10;16.87;;;11.07;;
5345;SDS011;2695;49.444;11.054;2023-05-23T03:23:38;10.37;;;8.53;;
5345;SDS011;2695;49.444;11.054;2023-05-23T03:26:06;10.43;;;8.60;;
5345;SDS011;2695;49.444;11.054;2023-05-23T03:28:35;16.73;;;9.30;;
5345;SDS011;2695;49.444;11.054;2023-05-23T03:31:04;14.27;;;9.37;;
5345;SDS011;2695;49.444;11.054;2023-05-23T03:33:32;13.50;;;8.90;;
5345;SDS011;2695;49.444;11.054;2023-05-23T03:36:02;12.90;;;9.80;;
5345;SDS011;2695;49.444;11.054;2023-05-23T03:38:30;12.10;;;8.20;;
5345;SDS011;2695;49.444;11.054;2023-05-23T03:40:58;13.83;;;9.90;;
5345;SDS011;2695;49.444;11.054;2023-05-23T03:43:27;11.50;;;8.70;;
5345;SDS011;2695;49.444;11.054;2023-05-23T03:45:57;14.23;;;9.97;;
5345;SDS011;2695;49.444;11.054;2023-05-23T03:48:25;10.33;;;9.07;;
5345;SDS011;2695;49.444;11.054;2023-05-23T03:50:55;15.80;;;8.90;;
5345;SDS011;2695;49.444;11.054;2023-05-23T03:53:23;13.23;;;9.10;;
5345;SDS011;2695;49.444;11.054;2023-05-23T03:55:51;12.63;;;9.33;;
5345;SDS011;2695;49.444;11.054;2023-05-23T03:58:20;10.37;;;9.10;;
5345;SDS011;2695;49.444;11.054;2023-05-23T04:00:48;13.27;;;10.00;;
5345;SDS011;2695;49.444;11.054;2023-05-23T04:03:18;12.37;;;8.97;;
5345;SDS011;2695;49.444;11.054;2023-05-23T04:05:47;11.80;;;9.33;;
5345;SDS011;2695;49.444;11.054;2023-05-23T04:08:15;10.63;;;8.40;;
5345;SDS011;2695;49.444;11.054;2023-05-23T04:10:47;12.60;;;9.13;;
5345;SDS011;2695;49.444;11.054;2023-05-23T04:13:15;11.63;;;9.00;;
5345;SDS011;2695;49.444;11.054;2023-05-23T04:15:44;11.70;;;9.37;;
5345;SDS011;2695;49.444;11.054;2023-05-23T04:18:13;13.23;;;8.67;;
5345;SDS011;2695;49.444;11.054;2023-05-23T04:20:45;10.00;;;8.87;;
5345;SDS011;2695;49.444;11.054;2023-05-23T04:23:13;14.30;;;8.50;;
5345;SDS011;2695;49.444;11.054;2023-05-23T04:25:41;14.00;;;9.50;;
5345;SDS011;2695;49.444;11.054;2023-05-23T04:28:09;11.50;;;9.13;;
5345;SDS011;2695;49.444;11.054;2023-05-23T04:30:38;16.80;;;9.70;;
5345;SDS011;2695;49.444;11.054;2023-05-23T04:33:06;10.77;;;8.70;;
5345;SDS011;2695;49.444;11.054;2023-05-23T04:35:35;12.33;;;8.50;;
5345;SDS011;2695;49.444;11.054;2023-05-23T04:38:07;13.43;;;9.40;;
5345;SDS011;2695;49.444;11.054;2023-05-23T04:40:35;12.33;;;8.10;;
5345;SDS011;2695;49.444;11.054;2023-05-23T04:43:03;14.50;;;9.33;;
5345;SDS011;2695;49.444;11.054;2023-05-23T04:45:31;10.40;;;7.57;;
5345;SDS011;2695;49.444;11.054;2023-05-23T04:47:59;9.63;;;7.97;;
5345;SDS011;2695;49.444;11.054;2023-05-23T04:50:27;9.33;;;8.10;;
5345;SDS011;2695;49.444;11.054;2023-05-23T04:52:58;14.20;;;9.40;;
5345;SDS011;2695;49.444;11.054;2023-05-23T04:55:27;12.63;;;8.80;;
5345;SDS011;2695;49.444;11.054;2023-05-23T04:57:55;12.77;;;8.50;;
5345;SDS011;2695;49.444;11.054;2023-05-23T05:00:24;13.73;;;9.00;;
5345;SDS011;2695;49.444;11.054;2023-05-23T05:02:52;9.53;;;8.33;;
5345;SDS011;2695;49.444;11.054;2023-05-23T05:05:20;8.87;;;7.57;;
5345;SDS011;2695;49.444;11.054;2023-05-23T05:07:48;12.37;;;8.43;;
5345;SDS011;2695;49.444;11.054;2023-05-23T05:10:16;10.75;;;8.18;;
5345;SDS011;2695;49.444;11.054;2023-05-23T05:12:46;13.35;;;8.13;;
5345;SDS011;2695;49.444;11.054;2023-05-23T05:15:16;11.52;;;8.05;;
5345;SDS011;2695;49.444;11.054;2023-05-23T05:17:44;10.60;;;8.65;;
5345;SDS011;2695;49.444;11.054;2023-05-23T05:20:15;8.40;;;7.57;;
5345;SDS011;2695;49.444;11.054;2023-05-23T05:22:43;11.18;;;7.55;;
5345;SDS011;2695;49.444;11.054;2023-05-23T05:25:12;9.55;;;7.25;;
5345;SDS011;2695;49.444;11.054;2023-05-23T05:27:40;11.30;;;7.45;;
5345;SDS011;2695;49.444;11.054;2023-05-23T05:30:10;14.50;;;8.38;;
5345;SDS011;2695;49.444;11.054;2023-05-23T05:32:39;12.90;;;9.00;;
5345;SDS011;2695;49.444;11.054;2023-05-23T05:35:07;9.52;;;7.43;;
5345;SDS011;2695;49.444;11.054;2023-05-23T05:37:39;9.63;;;7.47;;
5345;SDS011;2695;49.444;11.054;2023-05-23T05:40:07;13.63;;;7.10;;
5345;SDS011;2695;49.444;11.054;2023-05-23T05:42:35;10.73;;;8.15;;
5345;SDS011;2695;49.444;11.054;2023-05-23T05:45:03;9.50;;;7.45;;
5345;SDS011;2695;49.444;11.054;2023-05-23T05:47:33;13.35;;;8.95;;
5345;SDS011;2695;49.444;11.054;2023-05-23T05:50:03;9.65;;;7.70;;
5345;SDS011;2695;49.444;11.054;2023-05-23T05:52:32;12.77;;;8.30;;
5345;SDS011;2695;49.444;11.054;2023-05-23T05:55:05;10.52;;;7.65;;
5345;SDS011;2695;49.444;11.054;2023-05-23T05:57:34;8.38;;;7.57;;
5345;SDS011;2695;49.444;11.054;2023-05-23T06:00:04;9.15;;;7.88;;
5345;SDS011;2695;49.444;11.054;2023-05-23T06:02:40;9.40;;;7.75;;
5345;SDS011;2695;49.444;11.054;2023-05-23T06:05:10;10.30;;;7.63;;
5345;SDS011;2695;49.444;11.054;2023-05-23T06:07:39;8.00;;;7.22;;
5345;SDS011;2695;49.444;11.054;2023-05-23T06:10:08;9.50;;;7.43;;
5345;SDS011;2695;49.444;11.054;2023-05-23T06:12:38;17.70;;;8.57;;
5345;SDS011;2695;49.444;11.054;2023-05-23T06:15:06;10.00;;;7.65;;
5345;SDS011;2695;49.444;11.054;2023-05-23T06:17:36;14.23;;;8.68;;
5345;SDS011;2695;49.444;11.054;2023-05-23T06:20:06;11.10;;;8.40;;
5345;SDS011;2695;49.444;11.054;2023-05-23T06:22:35;11.20;;;7.43;;
5345;SDS011;2695;49.444;11.054;2023-05-23T06:25:04;9.38;;;7.78;;
5345;SDS011;2695;49.444;11.054;2023-05-23T06:27:34;12.57;;;8.48;;
5345;SDS011;2695;49.444;11.054;2023-05-23T06:30:05;11.73;;;8.60;;
5345;SDS011;2695;49.444;11.054;2023-05-23T06:32:34;8.30;;;7.43;;
5345;SDS011;2695;49.444;11.054;2023-05-23T06:35:06;10.30;;;7.57;;
5345;SDS011;2695;49.444;11.054;2023-05-23T06:37:34;8.95;;;7.82;;
5345;SDS011;2695;49.444;11.054;2023-05-23T06:40:03;9.73;;;8.73;;
5345;SDS011;2695;49.444;11.054;2023-05-23T06:42:32;10.25;;;7.70;;
5345;SDS011;2695;49.444;11.054;2023-05-23T06:45:00;14.32;;;8.15;;
5345;SDS011;2695;49.444;11.054;2023-05-23T06:47:30;9.82;;;8.68;;
5345;SDS011;2695;49.444;11.054;2023-05-23T06:50:02;20.50;;;8.57;;
5345;SDS011;2695;49.444;11.054;2023-05-23T06:52:32;11.57;;;8.45;;
5345;SDS011;2695;49.444;11.054;2023-05-23T06:55:00;11.10;;;9.02;;
5345;SDS011;2695;49.444;11.054;2023-05-23T06:57:29;15.70;;;9.23;;
5345;SDS011;2695;49.444;11.054;2023-05-23T07:00:04;20.50;;;8.77;;
5345;SDS011;2695;49.444;11.054;2023-05-23T07:02:33;16.15;;;10.40;;
5345;SDS011;2695;49.444;11.054;2023-05-23T07:05:02;13.48;;;9.32;;
5345;SDS011;2695;49.444;11.054;2023-05-23T07:07:32;11.35;;;9.13;;
5345;SDS011;2695;49.444;11.054;2023-05-23T07:10:00;10.15;;;8.88;;
5345;SDS011;2695;49.444;11.054;2023-05-23T07:12:29;13.20;;;9.27;;
5345;SDS011;2695;49.444;11.054;2023-05-23T07:15:00;10.75;;;7.70;;
5345;SDS011;2695;49.444;11.054;2023-05-23T07:17:28;11.93;;;8.73;;
5345;SDS011;2695;49.444;11.054;2023-05-23T07:19:57;12.10;;;8.73;;
5345;SDS011;2695;49.444;11.054;2023-05-23T07:22:25;20.73;;;8.00;;
5345;SDS011;2695;49.444;11.054;2023-05-23T07:24:55;11.18;;;8.82;;
5345;SDS011;2695;49.444;11.054;2023-05-23T07:27:23;11.85;;;8.52;;
5345;SDS011;2695;49.444;11.054;2023-05-23T07:29:53;14.57;;;7.97;;
5345;SDS011;2695;49.444;11.054;2023-05-23T07:32:22;12.68;;;9.40;;
5345;SDS011;2695;49.444;11.054;2023-05-23T07:34:51;10.77;;;8.63;;
5345;SDS011;2695;49.444;11.054;2023-05-23T07:37:19;11.15;;;8.20;;
5345;SDS011;2695;49.444;11.054;2023-05-23T07:39:47;10.60;;;8.10;;
5345;SDS011;2695;49.444;11.054;2023-05-23T07:42:17;11.48;;;9.13;;
5345;SDS011;2695;49.444;11.054;2023-05-23T07:44:45;11.35;;;8.75;;
5345;SDS011;2695;49.444;11.054;2023-05-23T07:47:13;12.82;;;9.15;;
5345;SDS011;2695;49.444;11.054;2023-05-23T07:49:40;12.68;;;8.75;;
5345;SDS011;2695;49.444;11.054;2023-05-23T07:52:09;11.98;;;8.88;;
5345;SDS011;2695;49.444;11.054;2023-05-23T07:54:37;13.55;;;9.07;;
5345;SDS011;2695;49.444;11.054;2023-05-23T07:57:05;12.15;;;9.90;;
5345;SDS011;2695;49.444;11.054;2023-05-23T07:59:35;10.20;;;8.57;;
5345;SDS011;2695;49.444;11.054;2023-05-23T08:02:04;11.98;;;8.55;;
5345;SDS011;2695;49.444;11.054;2023-05-23T08:04:33;12.47;;;8.40;;
5345;SDS011;2695;49.444;11.054;2023-05-23T08:07:01;10.70;;;8.02;;
5345;SDS011;2695;49.444;11.054;2023-05-23T08:09:31;13.63;;;8.52;;
5345;SDS011;2695;49.444;11.054;2023-05-23T08:11:59;13.65;;;8.68;;
5345;SDS011;2695;49.444;11.054;2023-05-23T08:14:29;12.80;;;8.07;;
5345;SDS011;2695;49.444;11.054;2023-05-23T08:17:17;13.18;;;9.02;;
5345;SDS011;2695;49.444;11.054;2023-05-23T08:19:46;11.60;;;8.48;;
5345;SDS011;2695;49.444;11.054;2023-05-23T08:22:14;9.05;;;7.45;;
5345;SDS011;2695;49.444;11.054;2023-05-23T08:24:42;18.02;;;8.65;;
5345;SDS011;2695;49.444;11.054;2023-05-23T08:27:10;13.25;;;8.65;;
5345;SDS011;2695;49.444;11.054;2023-05-23T08:29:38;10.80;;;8.15;;
5345;SDS011;2695;49.444;11.054;2023-05-23T08:32:06;12.68;;;8.52;;
5345;SDS011;2695;49.444;11.054;2023-05-23T08:34:35;13.25;;;7.55;;
5345;SDS011;2695;49.444;11.054;2023-05-23T08:37:04;9.38;;;7.35;;
5345;SDS011;2695;49.444;11.054;2023-05-23T08:39:32;9.52;;;7.28;;
5345;SDS011;2695;49.444;11.054;2023-05-23T08:42:00;10.88;;;7.32;;
5345;SDS011;2695;49.444;11.054;2023-05-23T08:44:28;8.82;;;6.80;;
5345;SDS011;2695;49.444;11.054;2023-05-23T08:46:56;10.40;;;7.63;;
5345;SDS011;2695;49.444;11.054;2023-05-23T08:49:31;8.85;;;6.70;;
5345;SDS011;2695;49.444;11.054;2023-05-23T08:52:00;8.02;;;6.95;;
5345;SDS011;2695;49.444;11.054;2023-05-23T08:54:29;10.35;;;7.65;;
5345;SDS011;2695;49.444;11.054;2023-05-23T08:56:59;8.50;;;5.97;;
5345;SDS011;2695;49.444;11.054;2023-05-23T08:59:28;8.00;;;5.97;;
5345;SDS011;2695;49.444;11.054;2023-05-23T09:01:58;9.98;;;6.95;;
5345;SDS011;2695;49.444;11.054;2023-05-23T09:04:28;9.77;;;7.45;;
5345;SDS011;2695;49.444;11.054;2023-05-23T09:06:57;7.43;;;6.10;;
5345;SDS011;2695;49.444;11.054;2023-05-23T09:09:27;8.95;;;6.25;;
5345;SDS011;2695;49.444;11.054;2023-05-23T09:11:55;12.77;;;7.00;;
5345;SDS011;2695;49.444;11.054;2023-05-23T09:14:26;8.63;;;6.55;;
5345;SDS011;2695;49.444;11.054;2023-05-23T09:16:59;10.18;;;6.80;;
5345;SDS011;2695;49.444;11.054;2023-05-23T09:19:30;10.38;;;7.60;;
5345;SDS011;2695;49.444;11.054;2023-05-23T09:21:59;18.73;;;12.40;;
5345;SDS011;2695;49.444;11.054;2023-05-23T09:24:37;17.23;;;7.40;;
5345;SDS011;2695;49.444;11.054;2023-05-23T09:27:07;6.75;;;6.15;;
5345;SDS011;2695;49.444;11.054;2023-05-23T09:29:38;9.43;;;7.13;;
5345;SDS011;2695;49.444;11.054;2023-05-23T09:32:09;10.20;;;6.40;;
5345;SDS011;2695;49.444;11.054;2023-05-23T09:34:39;10.25;;;6.65;;
5345;SDS011;2695;49.444;11.054;2023-05-23T09:37:10;10.90;;;6.93;;
5345;SDS011;2695;49.444;11.054;2023-05-23T09:39:46;9.93;;;5.50;;
5345;SDS011;2695;49.444;11.054;2023-05-23T09:42:18;9.57;;;7.25;;
5345;SDS011;2695;49.444;11.054;2023-05-23T09:44:48;8.63;;;6.53;;
5345;SDS011;2695;49.444;11.054;2023-05-23T09:47:16;13.18;;;7.35;;
5345;SDS011;2695;49.444;11.054;2023-05-23T09:49:44;9.52;;;6.82;;
5345;SDS011;2695;49.444;11.054;2023-05-23T09:52:12;8.38;;;6.75;;
5345;SDS011;2695;49.444;11.054;2023-05-23T09:54:41;6.78;;;6.05;;
5345;SDS011;2695;49.444;11.054;2023-05-23T09:57:11;10.68;;;7.15;;
5345;SDS011;2695;49.444;11.054;2023-05-23T09:59:44;6.55;;;5.32;;
5345;SDS011;2695;49.444;11.054;2023-05-23T10:02:22;7.80;;;6.00;;
5345;SDS011;2695;49.444;11.054;2023-05-23T10:05:06;7.13;;;5.95;;
5345;SDS011;2695;49.444;11.054;2023-05-23T10:07:37;9.25;;;6.28;;
5345;SDS011;2695;49.444;11.054;2023-05-23T10:10:06;10.48;;;5.95;;
5345;SDS011;2695;49.444;11.054;2023-05-23T10:12:41;6.72;;;5.90;;
5345;SDS011;2695;49.444;11.054;2023-05-23T10:15:13;7.75;;;6.50;;
5345;SDS011;2695;49.444;11.054;2023-05-23T10:17:45;6.57;;;5.68;;
5345;SDS011;2695;49.444;11.054;2023-05-23T10:20:25;7.82;;;5.78;;
5345;SDS011;2695;49.444;11.054;2023-05-23T10:22:57;7.57;;;5.28;;
5345;SDS011;2695;49.444;11.054;2023-05-23T10:25:27;5.32;;;4.82;;
5345;SDS011;2695;49.444;11.054;2023-05-23T10:27:58;7.82;;;5.35;;
5345;SDS011;2695;49.444;11.054;2023-05-23T10:30:29;10.45;;;4.75;;
5345;SDS011;2695;49.444;11.054;2023-05-23T10:32:58;7.00;;;5.43;;
5345;SDS011;2695;49.444;11.054;2023-05-23T10:35:31;6.43;;;4.90;;
5345;SDS011;2695;49.444;11.054;2023-05-23T10:38:09;7.15;;;5.40;;
5345;SDS011;2695;49.444;11.054;2023-05-23T10:40:49;6.90;;;4.72;;
5345;SDS011;2695;49.444;11.054;2023-05-23T10:43:26;6.78;;;4.55;;
5345;SDS011;2695;49.444;11.054;2023-05-23T10:45:59;7.97;;;4.43;;
5345;SDS011;2695;49.444;11.054;2023-05-23T10:48:33;6.97;;;5.03;;
5345;SDS011;2695;49.444;11.054;2023-05-23T10:51:03;5.70;;;4.35;;
5345;SDS011;2695;49.444;11.054;2023-05-23T10:53:33;5.97;;;4.90;;
5345;SDS011;2695;49.444;11.054;2023-05-23T10:56:03;6.15;;;4.32;;
5345;SDS011;2695;49.444;11.054;2023-05-23T10:58:34;6.38;;;4.78;;
5345;SDS011;2695;49.444;11.054;2023-05-23T11:01:05;7.10;;;4.20;;
5345;SDS011;2695;49.444;11.054;2023-05-23T11:03:34;8.60;;;4.65;;
5345;SDS011;2695;49.444;11.054;2023-05-23T11:06:04;6.65;;;4.70;;
5345;SDS011;2695;49.444;11.054;2023-05-23T11:08:36;7.10;;;4.47;;
5345;SDS011;2695;49.444;11.054;2023-05-23T11:11:13;4.43;;;4.03;;
5345;SDS011;2695;49.444;11.054;2023-05-23T11:13:56;5.70;;;3.60;;
5345;SDS011;2695;49.444;11.054;2023-05-23T11:16:28;6.30;;;3.65;;
5345;SDS011;2695;49.444;11.054;2023-05-23T11:21:49;3.80;;;3.10;;
5345;SDS011;2695;49.444;11.054;2023-05-23T11:24:19;3.50;;;3.20;;
5345;SDS011;2695;49.444;11.054;2023-05-23T11:26:51;4.25;;;3.83;;
5345;SDS011;2695;49.444;11.054;2023-05-23T11:29:21;4.00;;;3.22;;
5345;SDS011;2695;49.444;11.054;2023-05-23T11:31:52;4.10;;;3.67;;
5345;SDS011;2695;49.444;11.054;2023-05-23T11:34:20;6.63;;;3.42;;
5345;SDS011;2695;49.444;11.054;2023-05-23T11:36:51;4.13;;;3.40;;
5345;SDS011;2695;49.444;11.054;2023-05-23T11:39:21;4.30;;;3.55;;
5345;SDS011;2695;49.444;11.054;2023-05-23T11:41:53;5.30;;;3.35;;
5345;SDS011;2695;49.444;11.054;2023-05-23T11:44:27;5.47;;;3.63;;
5345;SDS011;2695;49.444;11.054;2023-05-23T11:46:59;7.00;;;3.85;;
5345;SDS011;2695;49.444;11.054;2023-05-23T11:49:28;6.07;;;3.58;;
5345;SDS011;2695;49.444;11.054;2023-05-23T11:51:57;5.40;;;3.95;;
5345;SDS011;2695;49.444;11.054;2023-05-23T11:54:25;5.80;;;3.33;;
5345;SDS011;2695;49.444;11.054;2023-05-23T11:56:53;23.55;;;15.45;;
5345;SDS011;2695;49.444;11.054;2023-05-23T11:59:22;15.50;;;9.70;;
5345;SDS011;2695;49.444;11.054;2023-05-23T12:01:53;4.50;;;4.10;;
5345;SDS011;2695;49.444;11.054;2023-05-23T12:04:22;5.53;;;3.70;;
5345;SDS011;2695;49.444;11.054;2023-05-23T12:06:53;6.22;;;3.63;;
5345;SDS011;2695;49.444;11.054;2023-05-23T12:09:21;2.88;;;2.67;;
5345;SDS011;2695;49.444;11.054;2023-05-23T12:11:49;3.53;;;3.22;;
5345;SDS011;2695;49.444;11.054;2023-05-23T12:14:17;5.93;;;2.97;;
5345;SDS011;2695;49.444;11.054;2023-05-23T12:16:45;3.38;;;2.83;;
5345;SDS011;2695;49.444;11.054;2023-05-23T12:19:15;2.97;;;2.60;;
5345;SDS011;2695;49.444;11.054;2023-05-23T12:21:44;3.83;;;2.80;;
5345;SDS011;2695;49.444;11.054;2023-05-23T12:24:13;3.45;;;2.90;;
5345;SDS011;2695;49.444;11.054;2023-05-23T12:26:47;3.92;;;2.47;;
5345;SDS011;2695;49.444;11.054;2023-05-23T12:29:17;2.28;;;2.08;;
5345;SDS011;2695;49.444;11.054;2023-05-23T12:31:48;3.53;;;2.40;;
5345;SDS011;2695;49.444;11.054;2023-05-23T12:34:21;3.83;;;3.17;;
5345;SDS011;2695;49.444;11.054;2023-05-23T12:36:49;4.93;;;2.97;;
5345;SDS011;2695;49.444;11.054;2023-05-23T12:39:42;4.63;;;2.97;;
5345;SDS011;2695;49.444;11.054;2023-05-23T12:42:10;3.45;;;2.88;;
5345;SDS011;2695;49.444;11.054;2023-05-23T12:44:39;3.33;;;2.30;;
5345;SDS011;2695;49.444;11.054;2023-05-23T12:47:08;3.63;;;2.70;;
5345;SDS011;2695;49.444;11.054;2023-05-23T12:49:38;6.88;;;3.30;;
5345;SDS011;2695;49.444;11.054;2023-05-23T12:52:06;2.30;;;2.10;;
5345;SDS011;2695;49.444;11.054;2023-05-23T12:54:34;5.80;;;2.50;;
5345;SDS011;2695;49.444;11.054;2023-05-23T12:57:02;3.72;;;2.65;;
5345;SDS011;2695;49.444;11.054;2023-05-23T12:59:30;6.43;;;2.17;;
5345;SDS011;2695;49.444;11.054;2023-05-23T13:01:58;4.23;;;2.83;;
5345;SDS011;2695;49.444;11.054;2023-05-23T13:04:27;2.10;;;1.90;;
5345;SDS011;2695;49.444;11.054;2023-05-23T13:06:59;5.60;;;3.00;;
5345;SDS011;2695;49.444;11.054;2023-05-23T13:09:26;3.20;;;2.70;;
5345;SDS011;2695;49.444;11.054;2023-05-23T13:11:55;3.93;;;3.10;;
5345;SDS011;2695;49.444;11.054;2023-05-23T13:14:24;4.33;;;2.70;;
5345;SDS011;2695;49.444;11.054;2023-05-23T13:16:52;3.10;;;2.80;;
5345;SDS011;2695;49.444;11.054;2023-05-23T13:19:20;3.93;;;2.90;;
5345;SDS011;2695;49.444;11.054;2023-05-23T13:21:48;3.00;;;2.33;;
5345;SDS011;2695;49.444;11.054;2023-05-23T13:24:17;3.90;;;2.78;;
5345;SDS011;2695;49.444;11.054;2023-05-23T13:26:45;7.57;;;2.25;;
5345;SDS011;2695;49.444;11.054;2023-05-23T13:29:13;2.92;;;2.47;;
5345;SDS011;2695;49.444;11.054;2023-05-23T13:31:41;2.83;;;2.60;;
5345;SDS011;2695;49.444;11.054;2023-05-23T13:34:09;2.38;;;2.17;;
5345;SDS011;2695;49.444;11.054;2023-05-23T13:36:38;3.88;;;2.72;;
5345;SDS011;2695;49.444;11.054;2023-05-23T13:39:06;2.90;;;2.70;;
5345;SDS011;2695;49.444;11.054;2023-05-23T13:41:35;3.08;;;2.75;;
5345;SDS011;2695;49.444;11.054;2023-05-23T13:44:03;4.77;;;2.90;;
5345;SDS011;2695;49.444;11.054;2023-05-23T13:46:31;7.35;;;2.65;;
5345;SDS011;2695;49.444;11.054;2023-05-23T13:49:00;4.97;;;2.90;;
5345;SDS011;2695;49.444;11.054;2023-05-23T13:51:28;3.55;;;2.47;;
5345;SDS011;2695;49.444;11.054;2023-05-23T13:53:58;4.03;;;2.97;;
5345;SDS011;2695;49.444;11.054;2023-05-23T13:56:26;3.40;;;2.78;;
5345;SDS011;2695;49.444;11.054;2023-05-23T13:58:56;2.88;;;2.42;;
5345;SDS011;2695;49.444;11.054;2023-05-23T14:01:25;3.58;;;2.90;;
5345;SDS011;2695;49.444;11.054;2023-05-23T14:03:53;3.92;;;3.47;;
5345;SDS011;2695;49.444;11.054;2023-05-23T14:06:21;3.97;;;2.55;;
5345;SDS011;2695;49.444;11.054;2023-05-23T14:08:49;4.60;;;2.70;;
5345;SDS011;2695;49.444;11.054;2023-05-23T14:11:17;3.20;;;2.90;;
5345;SDS011;2695;49.444;11.054;2023-05-23T14:13:45;2.95;;;2.63;;
5345;SDS011;2695;49.444;11.054;2023-05-23T14:16:15;4.03;;;2.60;;
5345;SDS011;2695;49.444;11.054;2023-05-23T14:18:43;5.55;;;2.67;;
5345;SDS011;2695;49.444;11.054;2023-05-23T14:21:11;3.00;;;2.50;;
5345;SDS011;2695;49.444;11.054;2023-05-23T14:23:39;3.30;;;2.40;;
5345;SDS011;2695;49.444;11.054;2023-05-23T14:26:08;3.60;;;3.07;;
5345;SDS011;2695;49.444;11.054;2023-05-23T14:28:36;4.70;;;2.43;;
5345;SDS011;2695;49.444;11.054;2023-05-23T14:31:04;8.13;;;2.73;;
5345;SDS011;2695;49.444;11.054;2023-05-23T14:33:34;6.73;;;3.03;;
5345;SDS011;2695;49.444;11.054;2023-05-23T14:36:02;4.80;;;3.00;;
5345;SDS011;2695;49.444;11.054;2023-05-23T14:38:31;2.70;;;2.50;;
5345;SDS011;2695;49.444;11.054;2023-05-23T14:40:59;7.30;;;2.70;;
5345;SDS011;2695;49.444;11.054;2023-05-23T14:43:27;2.33;;;2.13;;
5345;SDS011;2695;49.444;11.054;2023-05-23T14:45:55;9.90;;;3.37;;
5345;SDS011;2695;49.444;11.054;2023-05-23T14:48:23;3.47;;;2.07;;
5345;SDS011;2695;49.444;11.054;2023-05-23T14:50:53;4.40;;;2.63;;
5345;SDS011;2695;49.444;11.054;2023-05-23T14:53:21;7.53;;;1.93;;
5345;SDS011;2695;49.444;11.054;2023-05-23T14:55:51;2.42;;;2.17;;
5345;SDS011;2695;49.444;11.054;2023-05-23T14:58:19;4.53;;;2.47;;
5345;SDS011;2695;49.444;11.054;2023-05-23T15:00:48;6.53;;;2.38;;
5345;SDS011;2695;49.444;11.054;2023-05-23T15:03:16;3.28;;;2.53;;
5345;SDS011;2695;49.444;11.054;2023-05-23T15:05:44;7.00;;;2.40;;
5345;SDS011;2695;49.444;11.054;2023-05-23T15:08:15;6.07;;;2.40;;
5345;SDS011;2695;49.444;11.054;2023-05-23T15:10:44;4.17;;;2.47;;
5345;SDS011;2695;49.444;11.054;2023-05-23T15:13:14;3.60;;;2.13;;